sensor_id;sensor_type;location;lat;lon;timestamp;P1;durP1;ratioP1;P2;durP2;ratioP2
68858;SDS011;55864;49.238;8.092;2023-08-21T00:00:12;10.05;;;4.55;;
68858;SDS011;55864;49.238;8.092;2023-08-21T00:02:13;6.55;;;3.97;;
68858;SDS011;55864;49.238;8.092;2023-08-21T00:04:15;9.40;;;4.60;;
68858;SDS011;55864;49.238;8.092;2023-08-21T00:06:15;8.25;;;4.53;;
68858;SDS011;55864;49.238;8.092;2023-08-21T00:08:16;10.38;;;4.85;;
68858;SDS011;55864;49.238;8.092;2023-08-21T00:10:16;11.57;;;5.00;;
68858;SDS011;55864;49.238;8.092;2023-08-21T00:12:17;9.18;;;4.85;;
68858;SDS011;55864;49.238;8.092;2023-08-21T00:14:17;8.65;;;4.68;;
68858;SDS011;55864;49.238;8.092;2023-08-21T00:16:18;10.18;;;5.00;;
68858;SDS011;55864;49.238;8.092;2023-08-21T00:18:18;10.48;;;4.90;;
68858;SDS011;55864;49.238;8.092;2023-08-21T00:20:20;8.50;;;4.78;;
68858;SDS011;55864;49.238;8.092;2023-08-21T00:22:21;8.40;;;4.40;;
68858;SDS011;55864;49.238;8.092;2023-08-21T00:24:21;7.85;;;4.55;;
68858;SDS011;55864;49.238;8.092;2023-08-21T00:26:22;7.95;;;4.50;;
68858;SDS011;55864;49.238;8.092;2023-08-21T00:28:22;10.68;;;5.00;;
68858;SDS011;55864;49.238;8.092;2023-08-21T00:30:23;8.20;;;4.70;;
68858;SDS011;55864;49.238;8.092;2023-08-21T00:32:24;8.30;;;4.35;;
68858;SDS011;55864;49.238;8.092;2023-08-21T00:34:24;10.32;;;4.60;;
68858;SDS011;55864;49.238;8.092;2023-08-21T00:36:26;10.20;;;4.90;;
68858;SDS011;55864;49.238;8.092;2023-08-21T00:38:27;7.35;;;4.20;;
68858;SDS011;55864;49.238;8.092;2023-08-21T00:40:28;9.55;;;4.43;;
68858;SDS011;55864;49.238;8.092;2023-08-21T00:42:28;10.02;;;4.57;;
68858;SDS011;55864;49.238;8.092;2023-08-21T00:44:28;9.35;;;4.75;;
68858;SDS011;55864;49.238;8.092;2023-08-21T00:46:30;9.88;;;4.68;;
68858;SDS011;55864;49.238;8.092;2023-08-21T00:48:30;7.85;;;4.53;;
68858;SDS011;55864;49.238;8.092;2023-08-21T00:50:32;9.23;;;5.20;;
68858;SDS011;55864;49.238;8.092;2023-08-21T00:52:34;10.52;;;5.22;;
68858;SDS011;55864;49.238;8.092;2023-08-21T00:54:35;9.40;;;4.93;;
68858;SDS011;55864;49.238;8.092;2023-08-21T00:56:35;8.90;;;4.88;;
68858;SDS011;55864;49.238;8.092;2023-08-21T00:58:36;9.18;;;4.75;;
68858;SDS011;55864;49.238;8.092;2023-08-21T01:00:38;9.27;;;4.85;;
68858;SDS011;55864;49.238;8.092;2023-08-21T01:02:40;10.27;;;5.00;;
68858;SDS011;55864;49.238;8.092;2023-08-21T01:04:42;7.95;;;4.60;;
68858;SDS011;55864;49.238;8.092;2023-08-21T01:06:42;9.82;;;4.90;;
68858;SDS011;55864;49.238;8.092;2023-08-21T01:08:46;9.05;;;4.85;;
68858;SDS011;55864;49.238;8.092;2023-08-21T01:10:54;8.48;;;4.45;;
68858;SDS011;55864;49.238;8.092;2023-08-21T01:13:01;8.38;;;4.50;;
68858;SDS011;55864;49.238;8.092;2023-08-21T01:15:07;10.48;;;4.50;;
68858;SDS011;55864;49.238;8.092;2023-08-21T01:17:08;8.45;;;4.28;;
68858;SDS011;55864;49.238;8.092;2023-08-21T01:19:14;8.23;;;4.40;;
68858;SDS011;55864;49.238;8.092;2023-08-21T01:21:24;7.93;;;4.65;;
68858;SDS011;55864;49.238;8.092;2023-08-21T01:23:33;8.38;;;4.53;;
68858;SDS011;55864;49.238;8.092;2023-08-21T01:25:34;8.45;;;4.38;;
68858;SDS011;55864;49.238;8.092;2023-08-21T01:27:36;7.72;;;4.47;;
68858;SDS011;55864;49.238;8.092;2023-08-21T01:29:37;7.32;;;4.43;;
68858;SDS011;55864;49.238;8.092;2023-08-21T01:31:37;8.65;;;4.50;;
68858;SDS011;55864;49.238;8.092;2023-08-21T01:33:45;11.73;;;4.68;;
68858;SDS011;55864;49.238;8.092;2023-08-21T01:35:47;9.18;;;4.75;;
68858;SDS011;55864;49.238;8.092;2023-08-21T01:37:49;9.27;;;4.68;;
68858;SDS011;55864;49.238;8.092;2023-08-21T01:39:52;9.55;;;5.03;;
68858;SDS011;55864;49.238;8.092;2023-08-21T01:41:53;11.55;;;4.50;;
68858;SDS011;55864;49.238;8.092;2023-08-21T01:43:55;9.55;;;4.88;;
68858;SDS011;55864;49.238;8.092;2023-08-21T01:45:55;8.27;;;4.70;;
68858;SDS011;55864;49.238;8.092;2023-08-21T01:47:56;7.50;;;4.50;;
68858;SDS011;55864;49.238;8.092;2023-08-21T01:49:57;8.30;;;4.80;;
68858;SDS011;55864;49.238;8.092;2023-08-21T01:51:57;7.47;;;4.28;;
68858;SDS011;55864;49.238;8.092;2023-08-21T01:53:59;9.80;;;5.10;;
68858;SDS011;55864;49.238;8.092;2023-08-21T01:56:01;8.18;;;5.00;;
68858;SDS011;55864;49.238;8.092;2023-08-21T01:58:01;6.93;;;4.53;;
68858;SDS011;55864;49.238;8.092;2023-08-21T02:00:02;8.82;;;4.63;;
68858;SDS011;55864;49.238;8.092;2023-08-21T02:02:14;8.23;;;4.93;;
68858;SDS011;55864;49.238;8.092;2023-08-21T02:04:15;10.70;;;4.88;;
68858;SDS011;55864;49.238;8.092;2023-08-21T02:06:15;10.15;;;4.93;;
68858;SDS011;55864;49.238;8.092;2023-08-21T02:08:17;11.98;;;4.60;;
68858;SDS011;55864;49.238;8.092;2023-08-21T02:10:18;8.48;;;5.00;;
68858;SDS011;55864;49.238;8.092;2023-08-21T02:12:20;8.25;;;4.70;;
68858;SDS011;55864;49.238;8.092;2023-08-21T02:14:20;10.38;;;4.63;;
68858;SDS011;55864;49.238;8.092;2023-08-21T02:16:21;8.60;;;5.30;;
68858;SDS011;55864;49.238;8.092;2023-08-21T02:18:21;10.95;;;5.28;;
68858;SDS011;55864;49.238;8.092;2023-08-21T02:20:22;9.15;;;5.18;;
68858;SDS011;55864;49.238;8.092;2023-08-21T02:22:22;9.18;;;5.43;;
68858;SDS011;55864;49.238;8.092;2023-08-21T02:24:23;10.57;;;5.43;;
68858;SDS011;55864;49.238;8.092;2023-08-21T02:26:23;10.73;;;5.63;;
68858;SDS011;55864;49.238;8.092;2023-08-21T02:28:25;10.30;;;5.65;;
68858;SDS011;55864;49.238;8.092;2023-08-21T02:30:26;9.65;;;5.28;;
68858;SDS011;55864;49.238;8.092;2023-08-21T02:32:27;9.50;;;5.35;;
68858;SDS011;55864;49.238;8.092;2023-08-21T02:34:28;9.63;;;5.30;;
68858;SDS011;55864;49.238;8.092;2023-08-21T02:36:28;10.85;;;5.80;;
68858;SDS011;55864;49.238;8.092;2023-08-21T02:38:29;9.48;;;5.80;;
68858;SDS011;55864;49.238;8.092;2023-08-21T02:40:31;9.75;;;6.07;;
68858;SDS011;55864;49.238;8.092;2023-08-21T02:42:31;9.75;;;5.70;;
68858;SDS011;55864;49.238;8.092;2023-08-21T02:44:33;10.63;;;6.07;;
68858;SDS011;55864;49.238;8.092;2023-08-21T02:46:33;11.25;;;6.45;;
68858;SDS011;55864;49.238;8.092;2023-08-21T02:48:34;10.82;;;6.13;;
68858;SDS011;55864;49.238;8.092;2023-08-21T02:50:35;10.02;;;6.50;;
68858;SDS011;55864;49.238;8.092;2023-08-21T02:52:35;13.25;;;6.03;;
68858;SDS011;55864;49.238;8.092;2023-08-21T02:54:36;9.85;;;5.57;;
68858;SDS011;55864;49.238;8.092;2023-08-21T02:56:36;9.77;;;5.75;;
68858;SDS011;55864;49.238;8.092;2023-08-21T02:58:37;12.00;;;5.93;;
68858;SDS011;55864;49.238;8.092;2023-08-21T03:00:39;11.30;;;5.72;;
68858;SDS011;55864;49.238;8.092;2023-08-21T03:02:39;9.30;;;5.43;;
68858;SDS011;55864;49.238;8.092;2023-08-21T03:04:40;9.88;;;5.78;;
68858;SDS011;55864;49.238;8.092;2023-08-21T03:06:40;11.85;;;5.90;;
68858;SDS011;55864;49.238;8.092;2023-08-21T03:08:41;11.13;;;6.13;;
68858;SDS011;55864;49.238;8.092;2023-08-21T03:10:41;10.82;;;5.57;;
68858;SDS011;55864;49.238;8.092;2023-08-21T03:12:42;12.85;;;6.05;;
68858;SDS011;55864;49.238;8.092;2023-08-21T03:14:42;9.20;;;5.35;;
68858;SDS011;55864;49.238;8.092;2023-08-21T03:16:45;10.63;;;5.70;;
68858;SDS011;55864;49.238;8.092;2023-08-21T03:18:55;9.55;;;5.13;;
68858;SDS011;55864;49.238;8.092;2023-08-21T03:20:57;9.75;;;4.78;;
68858;SDS011;55864;49.238;8.092;2023-08-21T03:22:57;9.48;;;5.20;;
68858;SDS011;55864;49.238;8.092;2023-08-21T03:24:58;8.57;;;5.00;;
68858;SDS011;55864;49.238;8.092;2023-08-21T03:26:59;11.07;;;5.28;;
68858;SDS011;55864;49.238;8.092;2023-08-21T03:29:00;8.07;;;5.18;;
68858;SDS011;55864;49.238;8.092;2023-08-21T03:31:01;9.40;;;5.22;;
68858;SDS011;55864;49.238;8.092;2023-08-21T03:33:04;9.98;;;5.70;;
68858;SDS011;55864;49.238;8.092;2023-08-21T03:35:05;11.73;;;5.90;;
68858;SDS011;55864;49.238;8.092;2023-08-21T03:37:06;9.40;;;5.25;;
68858;SDS011;55864;49.238;8.092;2023-08-21T03:39:07;10.48;;;5.78;;
68858;SDS011;55864;49.238;8.092;2023-08-21T03:41:11;10.43;;;5.10;;
68858;SDS011;55864;49.238;8.092;2023-08-21T03:43:12;11.18;;;5.13;;
68858;SDS011;55864;49.238;8.092;2023-08-21T03:45:12;8.75;;;5.05;;
68858;SDS011;55864;49.238;8.092;2023-08-21T03:47:13;9.95;;;5.30;;
68858;SDS011;55864;49.238;8.092;2023-08-21T03:49:24;8.93;;;4.75;;
68858;SDS011;55864;49.238;8.092;2023-08-21T03:51:24;10.27;;;4.93;;
68858;SDS011;55864;49.238;8.092;2023-08-21T03:53:25;9.60;;;5.00;;
68858;SDS011;55864;49.238;8.092;2023-08-21T03:55:26;9.20;;;4.80;;
68858;SDS011;55864;49.238;8.092;2023-08-21T03:57:26;9.75;;;5.13;;
68858;SDS011;55864;49.238;8.092;2023-08-21T03:59:27;9.90;;;4.97;;
68858;SDS011;55864;49.238;8.092;2023-08-21T04:01:27;10.77;;;5.40;;
68858;SDS011;55864;49.238;8.092;2023-08-21T04:03:28;9.65;;;5.07;;
68858;SDS011;55864;49.238;8.092;2023-08-21T04:05:30;8.80;;;4.70;;
68858;SDS011;55864;49.238;8.092;2023-08-21T04:07:31;12.63;;;5.47;;
68858;SDS011;55864;49.238;8.092;2023-08-21T04:09:31;9.35;;;5.22;;
68858;SDS011;55864;49.238;8.092;2023-08-21T04:11:32;10.27;;;5.07;;
68858;SDS011;55864;49.238;8.092;2023-08-21T04:13:32;10.57;;;5.45;;
68858;SDS011;55864;49.238;8.092;2023-08-21T04:15:33;11.43;;;5.00;;
68858;SDS011;55864;49.238;8.092;2023-08-21T04:17:34;11.02;;;5.22;;
68858;SDS011;55864;49.238;8.092;2023-08-21T04:19:35;8.65;;;5.13;;
68858;SDS011;55864;49.238;8.092;2023-08-21T04:21:37;8.18;;;4.90;;
68858;SDS011;55864;49.238;8.092;2023-08-21T04:23:38;9.13;;;5.05;;
68858;SDS011;55864;49.238;8.092;2023-08-21T04:25:38;8.80;;;5.03;;
68858;SDS011;55864;49.238;8.092;2023-08-21T04:27:39;8.23;;;4.85;;
68858;SDS011;55864;49.238;8.092;2023-08-21T04:29:39;9.95;;;4.75;;
68858;SDS011;55864;49.238;8.092;2023-08-21T04:31:40;10.45;;;4.78;;
68858;SDS011;55864;49.238;8.092;2023-08-21T04:33:41;8.95;;;4.95;;
68858;SDS011;55864;49.238;8.092;2023-08-21T04:35:42;10.27;;;5.22;;
68858;SDS011;55864;49.238;8.092;2023-08-21T04:37:50;10.82;;;5.00;;
68858;SDS011;55864;49.238;8.092;2023-08-21T04:39:53;9.63;;;5.30;;
68858;SDS011;55864;49.238;8.092;2023-08-21T04:41:54;9.40;;;5.00;;
68858;SDS011;55864;49.238;8.092;2023-08-21T04:43:55;8.48;;;4.95;;
68858;SDS011;55864;49.238;8.092;2023-08-21T04:45:57;10.10;;;5.10;;
68858;SDS011;55864;49.238;8.092;2023-08-21T04:47:59;9.00;;;4.88;;
68858;SDS011;55864;49.238;8.092;2023-08-21T04:49:59;8.70;;;4.80;;
68858;SDS011;55864;49.238;8.092;2023-08-21T04:52:02;9.75;;;4.93;;
68858;SDS011;55864;49.238;8.092;2023-08-21T04:54:05;10.05;;;5.10;;
68858;SDS011;55864;49.238;8.092;2023-08-21T04:56:05;10.70;;;5.20;;
68858;SDS011;55864;49.238;8.092;2023-08-21T04:58:08;9.45;;;5.05;;
68858;SDS011;55864;49.238;8.092;2023-08-21T05:00:09;11.15;;;5.00;;
68858;SDS011;55864;49.238;8.092;2023-08-21T05:02:13;10.48;;;5.35;;
68858;SDS011;55864;49.238;8.092;2023-08-21T05:04:13;10.10;;;5.30;;
68858;SDS011;55864;49.238;8.092;2023-08-21T05:06:14;9.23;;;5.07;;
68858;SDS011;55864;49.238;8.092;2023-08-21T05:08:15;10.27;;;5.38;;
68858;SDS011;55864;49.238;8.092;2023-08-21T05:10:16;9.65;;;5.50;;
68858;SDS011;55864;49.238;8.092;2023-08-21T05:12:17;8.57;;;4.78;;
68858;SDS011;55864;49.238;8.092;2023-08-21T05:14:18;9.68;;;5.35;;
68858;SDS011;55864;49.238;8.092;2023-08-21T05:16:18;9.88;;;5.00;;
68858;SDS011;55864;49.238;8.092;2023-08-21T05:18:20;8.70;;;5.15;;
68858;SDS011;55864;49.238;8.092;2023-08-21T05:20:20;9.50;;;5.07;;
68858;SDS011;55864;49.238;8.092;2023-08-21T05:22:21;12.48;;;5.40;;
68858;SDS011;55864;49.238;8.092;2023-08-21T05:24:22;9.15;;;4.85;;
68858;SDS011;55864;49.238;8.092;2023-08-21T05:26:29;9.52;;;5.10;;
68858;SDS011;55864;49.238;8.092;2023-08-21T05:28:29;9.75;;;5.00;;
68858;SDS011;55864;49.238;8.092;2023-08-21T05:30:30;9.15;;;5.35;;
68858;SDS011;55864;49.238;8.092;2023-08-21T05:32:30;8.15;;;4.97;;
68858;SDS011;55864;49.238;8.092;2023-08-21T05:34:32;9.95;;;5.82;;
68858;SDS011;55864;49.238;8.092;2023-08-21T05:36:33;9.00;;;5.32;;
68858;SDS011;55864;49.238;8.092;2023-08-21T05:38:33;10.02;;;5.38;;
68858;SDS011;55864;49.238;8.092;2023-08-21T05:40:34;9.45;;;5.38;;
68858;SDS011;55864;49.238;8.092;2023-08-21T05:42:37;10.18;;;5.57;;
68858;SDS011;55864;49.238;8.092;2023-08-21T05:44:37;12.00;;;6.43;;
68858;SDS011;55864;49.238;8.092;2023-08-21T05:46:38;12.35;;;5.97;;
68858;SDS011;55864;49.238;8.092;2023-08-21T05:48:38;10.25;;;5.53;;
68858;SDS011;55864;49.238;8.092;2023-08-21T05:50:39;10.52;;;5.68;;
68858;SDS011;55864;49.238;8.092;2023-08-21T05:52:39;10.38;;;5.53;;
68858;SDS011;55864;49.238;8.092;2023-08-21T05:54:41;11.13;;;6.13;;
68858;SDS011;55864;49.238;8.092;2023-08-21T05:56:42;10.93;;;6.72;;
68858;SDS011;55864;49.238;8.092;2023-08-21T05:58:44;10.73;;;6.05;;
68858;SDS011;55864;49.238;8.092;2023-08-21T06:00:46;11.20;;;6.13;;
68858;SDS011;55864;49.238;8.092;2023-08-21T06:02:47;12.15;;;6.50;;
68858;SDS011;55864;49.238;8.092;2023-08-21T06:05:06;11.98;;;6.15;;
68858;SDS011;55864;49.238;8.092;2023-08-21T06:07:07;10.85;;;6.18;;
68858;SDS011;55864;49.238;8.092;2023-08-21T06:09:08;8.65;;;5.78;;
68858;SDS011;55864;49.238;8.092;2023-08-21T06:11:09;10.00;;;5.95;;
68858;SDS011;55864;49.238;8.092;2023-08-21T06:13:09;12.68;;;6.10;;
68858;SDS011;55864;49.238;8.092;2023-08-21T06:15:12;10.65;;;5.70;;
68858;SDS011;55864;49.238;8.092;2023-08-21T06:17:13;9.67;;;5.90;;
68858;SDS011;55864;49.238;8.092;2023-08-21T06:19:13;11.35;;;6.55;;
68858;SDS011;55864;49.238;8.092;2023-08-21T06:21:14;12.13;;;6.22;;
68858;SDS011;55864;49.238;8.092;2023-08-21T06:23:14;13.00;;;6.57;;
68858;SDS011;55864;49.238;8.092;2023-08-21T06:25:15;11.95;;;6.78;;
68858;SDS011;55864;49.238;8.092;2023-08-21T06:27:15;12.50;;;6.78;;
68858;SDS011;55864;49.238;8.092;2023-08-21T06:29:16;12.05;;;6.85;;
68858;SDS011;55864;49.238;8.092;2023-08-21T06:31:19;15.85;;;7.30;;
68858;SDS011;55864;49.238;8.092;2023-08-21T06:33:19;12.10;;;7.50;;
68858;SDS011;55864;49.238;8.092;2023-08-21T06:35:20;13.75;;;7.40;;
68858;SDS011;55864;49.238;8.092;2023-08-21T06:37:20;12.45;;;7.10;;
68858;SDS011;55864;49.238;8.092;2023-08-21T06:39:21;11.73;;;7.32;;
68858;SDS011;55864;49.238;8.092;2023-08-21T06:41:21;12.05;;;7.15;;
68858;SDS011;55864;49.238;8.092;2023-08-21T06:43:24;14.60;;;7.22;;
68858;SDS011;55864;49.238;8.092;2023-08-21T06:45:25;11.35;;;7.20;;
68858;SDS011;55864;49.238;8.092;2023-08-21T06:47:28;13.43;;;7.78;;
68858;SDS011;55864;49.238;8.092;2023-08-21T06:49:29;13.43;;;6.95;;
68858;SDS011;55864;49.238;8.092;2023-08-21T06:51:29;13.07;;;7.65;;
68858;SDS011;55864;49.238;8.092;2023-08-21T06:53:29;13.65;;;7.03;;
68858;SDS011;55864;49.238;8.092;2023-08-21T06:55:30;11.48;;;7.35;;
68858;SDS011;55864;49.238;8.092;2023-08-21T06:57:31;11.43;;;7.15;;
68858;SDS011;55864;49.238;8.092;2023-08-21T06:59:31;11.50;;;7.15;;
68858;SDS011;55864;49.238;8.092;2023-08-21T07:01:32;12.50;;;7.55;;
68858;SDS011;55864;49.238;8.092;2023-08-21T07:03:34;13.73;;;7.35;;
68858;SDS011;55864;49.238;8.092;2023-08-21T07:05:34;15.68;;;7.85;;
68858;SDS011;55864;49.238;8.092;2023-08-21T07:07:35;12.45;;;6.95;;
68858;SDS011;55864;49.238;8.092;2023-08-21T07:09:35;13.20;;;7.63;;
68858;SDS011;55864;49.238;8.092;2023-08-21T07:11:36;12.10;;;7.53;;
68858;SDS011;55864;49.238;8.092;2023-08-21T07:13:36;14.38;;;7.20;;
68858;SDS011;55864;49.238;8.092;2023-08-21T07:15:37;12.15;;;7.43;;
68858;SDS011;55864;49.238;8.092;2023-08-21T07:17:37;16.58;;;7.53;;
68858;SDS011;55864;49.238;8.092;2023-08-21T07:19:44;14.02;;;7.70;;
68858;SDS011;55864;49.238;8.092;2023-08-21T07:21:44;15.80;;;8.95;;
68858;SDS011;55864;49.238;8.092;2023-08-21T07:23:45;12.45;;;7.93;;
68858;SDS011;55864;49.238;8.092;2023-08-21T07:25:45;13.80;;;7.60;;
68858;SDS011;55864;49.238;8.092;2023-08-21T07:27:46;12.73;;;7.22;;
68858;SDS011;55864;49.238;8.092;2023-08-21T07:29:46;14.15;;;7.78;;
68858;SDS011;55864;49.238;8.092;2023-08-21T07:31:47;14.10;;;8.07;;
68858;SDS011;55864;49.238;8.092;2023-08-21T07:33:47;13.45;;;6.88;;
68858;SDS011;55864;49.238;8.092;2023-08-21T07:35:57;11.10;;;6.95;;
68858;SDS011;55864;49.238;8.092;2023-08-21T07:37:58;11.75;;;7.30;;
68858;SDS011;55864;49.238;8.092;2023-08-21T07:39:59;13.93;;;8.07;;
68858;SDS011;55864;49.238;8.092;2023-08-21T07:41:59;12.93;;;7.50;;
68858;SDS011;55864;49.238;8.092;2023-08-21T07:44:00;14.18;;;7.60;;
68858;SDS011;55864;49.238;8.092;2023-08-21T07:46:03;12.50;;;7.13;;
68858;SDS011;55864;49.238;8.092;2023-08-21T07:48:04;11.95;;;7.55;;
68858;SDS011;55864;49.238;8.092;2023-08-21T07:50:05;13.23;;;7.38;;
68858;SDS011;55864;49.238;8.092;2023-08-21T07:52:08;14.13;;;7.50;;
68858;SDS011;55864;49.238;8.092;2023-08-21T07:54:09;11.18;;;7.10;;
68858;SDS011;55864;49.238;8.092;2023-08-21T07:56:09;12.88;;;7.70;;
68858;SDS011;55864;49.238;8.092;2023-08-21T07:58:10;13.23;;;7.70;;
68858;SDS011;55864;49.238;8.092;2023-08-21T08:00:11;15.27;;;7.97;;
68858;SDS011;55864;49.238;8.092;2023-08-21T08:02:17;12.40;;;7.45;;
68858;SDS011;55864;49.238;8.092;2023-08-21T08:04:17;14.90;;;7.45;;
68858;SDS011;55864;49.238;8.092;2023-08-21T08:06:18;13.85;;;7.00;;
68858;SDS011;55864;49.238;8.092;2023-08-21T08:08:20;13.35;;;7.93;;
68858;SDS011;55864;49.238;8.092;2023-08-21T08:10:20;11.82;;;7.82;;
68858;SDS011;55864;49.238;8.092;2023-08-21T08:12:21;11.95;;;7.30;;
68858;SDS011;55864;49.238;8.092;2023-08-21T08:14:21;15.68;;;8.27;;
68858;SDS011;55864;49.238;8.092;2023-08-21T08:16:22;11.70;;;7.88;;
68858;SDS011;55864;49.238;8.092;2023-08-21T08:18:22;13.82;;;7.90;;
68858;SDS011;55864;49.238;8.092;2023-08-21T08:20:23;15.02;;;7.75;;
68858;SDS011;55864;49.238;8.092;2023-08-21T08:22:23;10.18;;;6.97;;
68858;SDS011;55864;49.238;8.092;2023-08-21T08:24:25;12.38;;;7.68;;
68858;SDS011;55864;49.238;8.092;2023-08-21T08:26:26;10.90;;;7.20;;
68858;SDS011;55864;49.238;8.092;2023-08-21T08:28:26;11.55;;;7.93;;
68858;SDS011;55864;49.238;8.092;2023-08-21T08:30:27;13.40;;;8.15;;
68858;SDS011;55864;49.238;8.092;2023-08-21T08:32:27;12.38;;;7.72;;
68858;SDS011;55864;49.238;8.092;2023-08-21T08:34:28;11.68;;;7.30;;
68858;SDS011;55864;49.238;8.092;2023-08-21T08:36:29;12.57;;;7.57;;
68858;SDS011;55864;49.238;8.092;2023-08-21T08:38:29;14.00;;;7.40;;
68858;SDS011;55864;49.238;8.092;2023-08-21T08:40:31;11.55;;;7.10;;
68858;SDS011;55864;49.238;8.092;2023-08-21T08:42:34;13.27;;;7.05;;
68858;SDS011;55864;49.238;8.092;2023-08-21T08:44:35;12.52;;;7.75;;
68858;SDS011;55864;49.238;8.092;2023-08-21T08:46:35;11.63;;;6.90;;
68858;SDS011;55864;49.238;8.092;2023-08-21T08:48:36;12.05;;;8.15;;
68858;SDS011;55864;49.238;8.092;2023-08-21T08:50:37;11.15;;;7.55;;
68858;SDS011;55864;49.238;8.092;2023-08-21T08:52:39;11.80;;;7.85;;
68858;SDS011;55864;49.238;8.092;2023-08-21T08:54:39;13.27;;;7.90;;
68858;SDS011;55864;49.238;8.092;2023-08-21T08:56:41;14.30;;;7.70;;
68858;SDS011;55864;49.238;8.092;2023-08-21T08:58:42;16.87;;;8.33;;
68858;SDS011;55864;49.238;8.092;2023-08-21T09:00:42;10.98;;;7.35;;
68858;SDS011;55864;49.238;8.092;2023-08-21T09:02:43;11.98;;;7.03;;
68858;SDS011;55864;49.238;8.092;2023-08-21T09:04:43;13.70;;;7.80;;
68858;SDS011;55864;49.238;8.092;2023-08-21T09:06:44;14.95;;;7.38;;
68858;SDS011;55864;49.238;8.092;2023-08-21T09:08:53;12.73;;;7.30;;
68858;SDS011;55864;49.238;8.092;2023-08-21T09:10:54;12.73;;;6.85;;
68858;SDS011;55864;49.238;8.092;2023-08-21T09:12:55;10.23;;;6.70;;
68858;SDS011;55864;49.238;8.092;2023-08-21T09:14:56;11.50;;;6.70;;
68858;SDS011;55864;49.238;8.092;2023-08-21T09:16:59;11.00;;;6.97;;
68858;SDS011;55864;49.238;8.092;2023-08-21T09:19:01;13.60;;;7.03;;
68858;SDS011;55864;49.238;8.092;2023-08-21T09:21:01;12.63;;;6.90;;
68858;SDS011;55864;49.238;8.092;2023-08-21T09:23:02;13.00;;;7.38;;
68858;SDS011;55864;49.238;8.092;2023-08-21T09:25:03;15.57;;;7.68;;
68858;SDS011;55864;49.238;8.092;2023-08-21T09:27:12;10.48;;;6.75;;
68858;SDS011;55864;49.238;8.092;2023-08-21T09:29:15;10.57;;;7.20;;
68858;SDS011;55864;49.238;8.092;2023-08-21T09:31:15;13.38;;;6.72;;
68858;SDS011;55864;49.238;8.092;2023-08-21T09:33:17;10.30;;;6.53;;
68858;SDS011;55864;49.238;8.092;2023-08-21T09:35:18;11.32;;;6.15;;
68858;SDS011;55864;49.238;8.092;2023-08-21T09:37:18;11.32;;;6.55;;
68858;SDS011;55864;49.238;8.092;2023-08-21T09:39:19;10.68;;;6.90;;
68858;SDS011;55864;49.238;8.092;2023-08-21T09:41:20;10.75;;;6.05;;
68858;SDS011;55864;49.238;8.092;2023-08-21T09:43:21;11.73;;;6.47;;
68858;SDS011;55864;49.238;8.092;2023-08-21T09:45:24;10.60;;;6.78;;
68858;SDS011;55864;49.238;8.092;2023-08-21T09:47:25;13.43;;;7.15;;
68858;SDS011;55864;49.238;8.092;2023-08-21T09:49:26;11.45;;;6.38;;
68858;SDS011;55864;49.238;8.092;2023-08-21T09:51:27;13.40;;;6.63;;
68858;SDS011;55864;49.238;8.092;2023-08-21T09:53:28;11.15;;;6.32;;
68858;SDS011;55864;49.238;8.092;2023-08-21T09:55:29;9.93;;;6.13;;
68858;SDS011;55864;49.238;8.092;2023-08-21T09:57:31;10.30;;;4.97;;
68858;SDS011;55864;49.238;8.092;2023-08-21T09:59:33;10.77;;;5.78;;
68858;SDS011;55864;49.238;8.092;2023-08-21T10:01:37;9.70;;;5.32;;
68858;SDS011;55864;49.238;8.092;2023-08-21T10:03:38;11.73;;;5.93;;
68858;SDS011;55864;49.238;8.092;2023-08-21T10:05:39;10.00;;;5.97;;
68858;SDS011;55864;49.238;8.092;2023-08-21T10:07:40;11.60;;;6.47;;
68858;SDS011;55864;49.238;8.092;2023-08-21T10:09:41;8.95;;;4.90;;
68858;SDS011;55864;49.238;8.092;2023-08-21T10:11:43;11.43;;;4.93;;
68858;SDS011;55864;49.238;8.092;2023-08-21T10:13:43;8.20;;;5.35;;
68858;SDS011;55864;49.238;8.092;2023-08-21T10:15:44;7.53;;;4.57;;
68858;SDS011;55864;49.238;8.092;2023-08-21T10:17:47;9.23;;;5.33;;
68858;SDS011;55864;49.238;8.092;2023-08-21T10:19:50;12.25;;;6.03;;
68858;SDS011;55864;49.238;8.092;2023-08-21T10:21:51;11.15;;;5.07;;
68858;SDS011;55864;49.238;8.092;2023-08-21T10:23:55;10.43;;;5.15;;
68858;SDS011;55864;49.238;8.092;2023-08-21T10:25:56;7.97;;;4.60;;
68858;SDS011;55864;49.238;8.092;2023-08-21T10:27:58;7.68;;;4.50;;
68858;SDS011;55864;49.238;8.092;2023-08-21T10:29:59;9.77;;;4.93;;
68858;SDS011;55864;49.238;8.092;2023-08-21T10:32:00;8.10;;;4.10;;
68858;SDS011;55864;49.238;8.092;2023-08-21T10:34:03;7.57;;;4.10;;
68858;SDS011;55864;49.238;8.092;2023-08-21T10:36:05;7.20;;;3.90;;
68858;SDS011;55864;49.238;8.092;2023-08-21T10:38:09;9.32;;;4.25;;
68858;SDS011;55864;49.238;8.092;2023-08-21T10:40:11;7.25;;;3.40;;
68858;SDS011;55864;49.238;8.092;2023-08-21T10:42:36;7.97;;;3.92;;
68858;SDS011;55864;49.238;8.092;2023-08-21T10:44:48;9.32;;;4.50;;
68858;SDS011;55864;49.238;8.092;2023-08-21T10:46:50;8.27;;;4.32;;
68858;SDS011;55864;49.238;8.092;2023-08-21T10:48:51;9.50;;;4.43;;
68858;SDS011;55864;49.238;8.092;2023-08-21T10:50:53;7.97;;;4.43;;
68858;SDS011;55864;49.238;8.092;2023-08-21T10:52:54;7.63;;;4.65;;
68858;SDS011;55864;49.238;8.092;2023-08-21T10:54:55;7.50;;;4.53;;
68858;SDS011;55864;49.238;8.092;2023-08-21T10:57:01;8.32;;;4.32;;
68858;SDS011;55864;49.238;8.092;2023-08-21T10:59:02;8.82;;;4.40;;
68858;SDS011;55864;49.238;8.092;2023-08-21T11:01:02;9.70;;;4.65;;
68858;SDS011;55864;49.238;8.092;2023-08-21T11:03:03;7.47;;;4.30;;
68858;SDS011;55864;49.238;8.092;2023-08-21T11:05:04;8.45;;;4.38;;
68858;SDS011;55864;49.238;8.092;2023-08-21T11:07:07;9.38;;;4.63;;
68858;SDS011;55864;49.238;8.092;2023-08-21T11:09:12;8.68;;;4.45;;
68858;SDS011;55864;49.238;8.092;2023-08-21T11:11:12;9.93;;;4.40;;
68858;SDS011;55864;49.238;8.092;2023-08-21T11:13:13;13.48;;;4.45;;
68858;SDS011;55864;49.238;8.092;2023-08-21T11:15:13;9.45;;;4.03;;
68858;SDS011;55864;49.238;8.092;2023-08-21T11:17:15;7.68;;;4.50;;
68858;SDS011;55864;49.238;8.092;2023-08-21T11:19:16;8.32;;;4.35;;
68858;SDS011;55864;49.238;8.092;2023-08-21T11:21:17;9.13;;;4.90;;
68858;SDS011;55864;49.238;8.092;2023-08-21T11:23:19;8.98;;;4.28;;
68858;SDS011;55864;49.238;8.092;2023-08-21T11:25:19;9.20;;;4.30;;
68858;SDS011;55864;49.238;8.092;2023-08-21T11:27:20;9.32;;;4.50;;
68858;SDS011;55864;49.238;8.092;2023-08-21T11:29:20;9.65;;;4.50;;
68858;SDS011;55864;49.238;8.092;2023-08-21T11:31:21;8.75;;;4.57;;
68858;SDS011;55864;49.238;8.092;2023-08-21T11:33:21;10.50;;;4.50;;
68858;SDS011;55864;49.238;8.092;2023-08-21T11:35:22;11.60;;;4.68;;
68858;SDS011;55864;49.238;8.092;2023-08-21T11:37:23;7.90;;;4.07;;
68858;SDS011;55864;49.238;8.092;2023-08-21T11:39:27;8.05;;;4.65;;
68858;SDS011;55864;49.238;8.092;2023-08-21T11:41:52;11.43;;;4.38;;
68858;SDS011;55864;49.238;8.092;2023-08-21T11:43:53;8.48;;;4.22;;
68858;SDS011;55864;49.238;8.092;2023-08-21T11:46:02;9.25;;;4.78;;
68858;SDS011;55864;49.238;8.092;2023-08-21T11:48:03;9.18;;;4.40;;
68858;SDS011;55864;49.238;8.092;2023-08-21T11:50:04;8.65;;;4.63;;
68858;SDS011;55864;49.238;8.092;2023-08-21T11:52:07;9.20;;;4.90;;
68858;SDS011;55864;49.238;8.092;2023-08-21T11:54:08;10.60;;;4.70;;
68858;SDS011;55864;49.238;8.092;2023-08-21T11:56:10;9.93;;;4.72;;
68858;SDS011;55864;49.238;8.092;2023-08-21T11:58:13;9.68;;;4.60;;
68858;SDS011;55864;49.238;8.092;2023-08-21T12:00:19;9.00;;;4.35;;
68858;SDS011;55864;49.238;8.092;2023-08-21T12:02:27;10.05;;;4.32;;
68858;SDS011;55864;49.238;8.092;2023-08-21T12:04:28;10.15;;;4.40;;
68858;SDS011;55864;49.238;8.092;2023-08-21T12:06:29;9.20;;;4.70;;